Decoded Metar for SOCA (CAYENNE in FRENCH GUYANA) (IATA:CAY) | Meteo·Mobile Aviation Weather
aviador You're here:

SOCA Decoded Metar

CAYENNE in FRENCH GUYANA
Report Time2019-05-19 18:30:00
UTC Time2019-05-19 18:52:40
Flight Rules mvfr MVFR
Wind070° at 12 kt
W.Decomp.*RWY 08: 11.9 kt HW 1.5 kt RCW
Visibility9999 m
Phenomena:N/A
Clouds:Broken 027 Hf
Broken 036 Hf
Expected CloudBase > 2,800 ft AGL from Temp-Dew spread
Ceiling2,700 ft
Temp31°C (ISA +16)
Dew Point24°C (66% RH)
Heat Index36.4°C
QNH1009 hPa
Density Alt2,392 ft
Elevation30 ft
Report Wrong Elevation
Raw Report
METAR SOCA 191830Z AUTO 07012KT 040V100 9999 BKN027 BKN036 31/24 Q1009
TEMPO SHRA=

Extra information for SOCA:More info

Metar Taf Metar & Taf Last 4 Metars F.Rules Stats Wind Profile Meteogram Temp Stats Airport Information Weather charts Add Link Nearby VenuesMetar ALERT Operation Metar Decoded Social comments